Latest Weather Observations for Bedout Island

IDW60801

Issued at 6:32 pm WST Saturday 25 April 2015 (issued every 30 minutes, with the page automatically refreshed every 10 minutes)

About weather observations | Map of weather stations | Latest weather observations for WA | Other Formats
Station Details ID: 004100 Name: BEDOUT ISLAND Lat: -19.59 Lon: 119.10 Height: 8.6 m
Data from the previous 72 hours. | See also: Recent months for locations in Western Australia
Date/Time
WST
Temp
°C
App
Temp
°C
Dew
Point
Rel
Hum
%
Delta-T
°C
Wind Press
QNH
hPa
Press
MSL
hPa
Rain
since 9 am
mm
Dir
 
Spd
km/h
Gust
km/h
Spd
kts
Gust
kts
25/06:30pm 26.4 20.8 15.4 50 6.7 ESE 39 46 21 25 1013.4 - -
25/05:30pm 26.2 21.6 16.2 54 6.1 ESE 35 39 19 21 1013.1 - -
25/05:00pm 26.5 22.6 17.8 58 5.5 SE 35 41 19 22 1012.7 - -
25/04:30pm 26.7 22.2 16.3 53 6.4 ESE 35 41 19 22 1012.4 - -
25/04:00pm 26.3 21.4 16.3 54 6.2 SE 37 41 20 22 1012.2 - -
25/03:30pm 26.6 21.0 16.5 54 6.2 SE 41 46 22 25 1012.2 - -
25/03:00pm 26.9 20.6 15.6 50 6.9 ESE 43 46 23 25 1012.2 1012.1 -
25/02:30pm 26.7 20.4 15.7 51 6.7 ESE 43 48 23 26 1012.0 - -
25/02:00pm 26.1 19.7 15.5 52 6.4 ESE 43 48 23 26 1012.2 - -
25/01:30pm 27.0 20.8 16.0 51 6.8 ESE 43 48 23 26 1012.5 - -
25/01:00pm 26.7 20.8 16.6 54 6.3 ESE 43 48 23 26 1012.9 - -
25/12:30pm 26.2 19.6 15.3 51 6.6 ESE 44 52 24 28 1012.8 - -
25/12:00pm 25.4 18.3 15.1 53 6.2 ESE 46 52 25 28 1013.2 1013.1 -
25/11:30am 25.4 17.5 14.8 52 6.3 ESE 50 59 27 32 1013.5 - -
25/11:00am 25.2 17.7 14.9 52 6.2 ESE 48 54 26 29 1013.9 - -
25/10:30am 25.2 16.8 14.6 51 6.3 ESE 52 57 28 31 1014.1 - -
25/10:00am 24.9 16.9 14.7 53 6.1 ESE 50 59 27 32 1014.2 - -
25/09:30am 24.9 17.3 14.7 53 6.1 ESE 48 59 26 32 1014.5 - -
25/09:00am 25.0 16.6 15.6 56 5.7 ESE 54 59 29 32 1014.3 1014.2 -
25/08:30am 24.9 16.6 15.0 54 5.9 ESE 52 61 28 33 1014.0 - -
25/08:00am 25.1 17.2 16.0 57 5.5 ESE 52 57 28 31 1013.8 - -
25/07:30am 25.0 16.6 15.6 56 5.7 ESE 54 61 29 33 1013.5 - -
25/07:00am 25.0 17.5 17.0 61 5.0 ESE 52 61 28 33 1013.0 - -
25/06:30am 24.9 17.5 16.3 59 5.3 ESE 50 59 27 32 1012.4 - -
25/06:00am 24.9 17.9 16.3 59 5.3 ESE 48 54 26 29 1012.0 1011.9 -
25/05:30am 25.2 18.8 16.9 60 5.1 ESE 46 54 25 29 1011.7 - -
25/05:00am 25.7 20.1 17.9 62 4.9 ESE 44 50 24 27 1011.4 - -
25/04:30am 25.8 21.4 19.4 67 4.1 ESE 41 48 22 26 1011.3 - -
25/04:00am 26.4 22.6 20.5 70 3.9 E 41 46 22 25 1011.2 - -
25/03:00am 26.9 22.4 20.0 66 4.5 E 43 52 23 28 1011.5 1011.4 -
25/02:30am 26.9 21.9 19.3 63 4.9 E 44 52 24 28 1011.7 - -
25/02:00am 26.9 21.7 18.7 60 5.2 E 44 52 24 28 1011.9 - -
25/01:30am 26.9 20.9 18.7 60 5.2 E 48 57 26 31 1012.0 - -
25/01:00am 26.5 22.2 19.6 66 4.5 E 41 46 22 25 1012.2 - -
25/12:30am 26.6 21.8 19.2 64 4.8 E 43 50 23 27 1012.5 - -
25/12:00am 26.6 21.0 17.9 59 5.5 E 44 52 24 28 1012.5 1012.4 -
 
Date/Time
WST
Temp
°C
App
Temp
°C
Dew
Point
Rel
Hum
%
Delta-T
°C
Wind Press
QNH
hPa
Press
MSL
hPa
Rain
since 9 am
mm
Dir
 
Spd
km/h
Gust
km/h
Spd
kts
Gust
kts
24/11:30pm 26.4 21.6 18.3 61 5.1 ESE 41 50 22 27 1012.7 - -
24/11:00pm 26.1 19.9 18.2 61 5.0 ESE 48 57 26 31 1012.7 - -
24/10:30pm 26.3 20.4 17.1 57 5.7 ESE 44 52 24 28 1012.6 - -
24/10:00pm 26.0 21.9 18.2 62 4.9 ESE 37 44 20 24 1012.9 - -
24/09:30pm 26.0 21.9 18.2 62 4.9 ESE 37 44 20 24 1013.0 - -
24/09:00pm 26.0 21.2 17.6 60 5.3 ESE 39 44 21 24 1012.9 1012.8 -
24/08:30pm 26.0 21.5 17.4 59 5.4 SE 37 43 20 23 1012.9 - -
24/08:00pm 26.0 22.0 18.4 63 4.8 SE 37 43 20 23 1012.5 - -
24/07:30pm 26.1 21.7 18.5 63 4.8 SE 39 46 21 25 1012.3 - -
24/07:26pm 26.3 21.9 18.4 61 5.0 SE 39 46 21 25 1012.2 - -
24/07:00pm 27.1 23.3 18.9 61 5.3 ESE 37 44 20 24 1011.8 - -
24/06:30pm 27.1 23.7 18.9 61 5.3 ESE 35 41 19 22 1011.7 - -
24/06:00pm 26.8 24.2 19.9 66 4.5 ESE 33 37 18 20 1011.4 1011.3 -
24/05:30pm 27.0 24.4 19.9 65 4.6 ESE 33 39 18 21 1011.2 - -
24/05:00pm 27.2 23.9 19.3 62 5.1 E 35 39 19 21 1011.2 - -
24/04:30pm 27.3 23.1 18.0 56 5.9 E 37 43 20 23 1011.0 - -
24/04:00pm 27.1 22.2 18.1 58 5.7 E 41 46 22 25 1010.9 - -
24/03:30pm 27.2 21.9 18.2 58 5.7 E 43 50 23 27 1010.9 - -
24/03:00pm 27.0 22.2 18.3 59 5.5 E 41 48 22 26 1010.8 1010.7 -
24/02:30pm 27.0 21.6 17.8 57 5.8 E 43 50 23 27 1010.9 - -
24/02:00pm 26.6 21.0 17.4 57 5.8 E 43 50 23 27 1011.1 - -
24/01:30pm 26.5 21.1 17.8 58 5.5 ESE 43 50 23 27 1011.2 - -
24/01:00pm 26.2 20.2 17.0 57 5.7 ESE 44 50 24 27 1011.5 - -
24/12:30pm 26.5 20.6 18.1 60 5.3 ESE 46 54 25 29 1011.6 - -
24/12:00pm 25.6 19.1 17.5 61 5.1 ESE 48 56 26 30 1011.9 1011.8 -
24/11:30am 25.9 19.4 17.5 59 5.3 ESE 48 57 26 31 1012.1 - -
24/11:00am 25.5 18.6 17.4 61 5.1 E 50 61 27 33 1012.4 - -
24/10:30am 25.4 17.8 16.8 59 5.3 ESE 52 59 28 32 1012.8 - -
24/10:00am 25.1 18.6 17.6 63 4.7 ESE 48 56 26 30 1013.1 - -
24/09:30am 24.6 17.4 16.8 62 4.8 ESE 50 59 27 32 1013.0 - -
24/09:00am 24.1 17.4 17.1 65 4.3 ESE 48 59 26 32 1013.0 1012.9 -
24/08:30am 23.5 15.9 16.8 66 4.1 ESE 52 57 28 31 1013.0 - -
24/08:00am 23.6 16.2 17.1 67 4.0 ESE 52 61 28 33 1012.7 - -
24/07:30am 23.3 15.9 17.1 68 3.8 ESE 52 65 28 35 1012.2 - -
24/07:00am 23.0 15.5 17.0 69 3.7 ESE 52 59 28 32 1012.2 - -
24/06:30am 23.0 16.1 17.5 71 3.4 ESE 50 57 27 31 1012.1 - -
24/06:00am 23.0 15.8 17.7 72 3.3 ESE 52 59 28 32 1011.8 1011.7 -
24/05:30am 23.2 16.6 18.1 73 3.2 ESE 50 59 27 32 1011.6 - -
24/05:00am 23.3 16.7 18.2 73 3.2 ESE 50 57 27 31 1011.3 - -
24/04:30am 22.6 16.2 17.9 75 2.9 SE 48 54 26 29 1011.3 - -
24/04:00am 22.6 16.2 17.9 75 2.9 SE 48 57 26 31 1011.3 - -
24/03:00am 22.3 16.1 19.1 82 2.0 SE 50 57 27 31 1011.4 1011.3 -
24/02:30am 22.2 16.3 19.7 86 1.6 SE 50 57 27 31 1011.6 - -
24/02:00am 22.4 17.9 20.3 88 1.4 SE 44 52 24 28 1011.7 - -
24/01:30am 22.2 17.5 19.9 87 1.5 SE 44 52 24 28 1012.0 - -
24/01:00am 22.3 17.4 20.2 88 1.4 ESE 46 54 25 29 1012.2 - -
24/12:30am 22.1 16.7 19.3 84 1.8 ESE 46 54 25 29 1012.1 - -
24/12:00am 22.9 17.3 18.7 77 2.7 ESE 46 54 25 29 1012.1 1012.0 -
 
Date/Time
WST
Temp
°C
App
Temp
°C
Dew
Point
Rel
Hum
%
Delta-T
°C
Wind Press
QNH
hPa
Press
MSL
hPa
Rain
since 9 am
mm
Dir
 
Spd
km/h
Gust
km/h
Spd
kts
Gust
kts
23/11:30pm 23.1 16.9 18.2 74 3.1 SE 48 56 26 30 1012.1 - -
23/11:00pm 23.2 16.9 18.1 73 3.2 SE 48 57 26 31 1012.3 - -
23/10:30pm 23.2 16.3 17.6 71 3.5 ESE 50 56 27 30 1012.4 - -
23/10:00pm 23.3 16.4 17.5 70 3.6 ESE 50 59 27 32 1012.5 - -
23/09:30pm 23.4 17.0 17.8 71 3.5 ESE 48 56 26 30 1012.4 - -
23/09:00pm 23.4 17.2 18.3 73 3.2 ESE 48 57 26 31 1012.4 1012.3 -
23/08:30pm 23.7 16.8 18.4 72 3.3 ESE 52 59 28 32 1012.3 - -
23/08:00pm 23.7 18.4 18.6 73 3.2 ESE 44 52 24 28 1012.1 - -
23/07:30pm 23.7 18.4 18.1 71 3.5 ESE 43 48 23 26 1011.5 - -
23/07:00pm 23.8 18.3 18.0 70 3.6 ESE 44 52 24 28 1011.1 - -
23/06:30pm 24.1 19.0 18.5 71 3.5 ESE 43 48 23 26 1010.9 - -
23/06:00pm 24.7 19.8 19.1 71 3.6 ESE 43 48 23 26 1010.8 1010.7 -
23/05:30pm 24.7 19.9 19.3 72 3.5 ESE 43 50 23 27 1010.5 - -
23/05:00pm 24.7 19.8 19.5 73 3.3 ESE 44 50 24 27 1010.2 - -
23/04:30pm 24.5 19.7 19.6 74 3.2 ESE 44 52 24 28 1009.9 - -
23/04:00pm 24.6 19.8 19.7 74 3.2 ESE 44 50 24 27 1009.7 - -
23/03:30pm 24.9 19.9 19.3 71 3.6 ESE 44 50 24 27 1009.8 - -
23/03:00pm 25.2 20.4 19.6 71 3.6 ESE 44 50 24 27 1009.8 1009.7 -
23/02:30pm 25.1 20.5 20.1 74 3.2 ESE 44 54 24 29 1009.8 - -
23/02:00pm 24.7 20.2 19.8 74 3.2 ESE 43 54 23 29 1009.9 - -
23/01:30pm 24.6 19.8 19.7 74 3.2 ESE 44 52 24 28 1009.8 - -
23/01:00pm 24.4 19.6 19.2 73 3.3 ESE 43 52 23 28 1010.4 - -
23/12:30pm 24.4 19.0 19.2 73 3.3 ESE 46 54 25 29 1010.6 - -
23/12:00pm 24.8 19.4 19.2 71 3.6 ESE 46 54 25 29 1011.1 1011.0 -
23/11:30am 24.0 18.2 19.1 74 3.1 E 48 56 26 30 1011.5 - -
23/11:00am 23.1 17.9 18.4 75 3.0 ESE 43 52 23 28 1011.9 - -
23/10:30am 23.0 17.4 17.9 73 3.2 ESE 44 56 24 30 1011.8 - -
23/10:00am 22.9 17.4 18.0 74 3.1 ESE 44 54 24 29 1012.0 - -
23/09:30am 22.8 16.3 17.5 72 3.3 ESE 48 56 26 30 1012.1 - -
23/09:00am 23.0 16.7 18.1 74 3.1 ESE 48 57 26 31 1011.8 1011.7 -
23/08:30am 21.8 15.8 17.8 78 2.5 ESE 46 56 25 30 1011.8 - -
23/08:00am 20.9 14.1 17.7 82 2.0 ESE 50 59 27 32 1011.4 - -
23/07:30am 21.1 15.9 18.9 87 1.4 ESE 44 54 24 29 1011.3 - -
23/07:00am 20.1 14.7 18.0 88 1.3 ESE 43 54 23 29 1011.4 - -
23/06:30am 19.9 13.9 17.9 88 1.2 ESE 46 59 25 32 1011.1 - -
23/06:00am 20.0 14.2 18.3 90 1.1 SE 46 52 25 28 1010.8 1010.7 -
23/05:30am 19.6 13.1 17.6 88 1.2 ESE 48 56 26 30 1010.5 - -
23/05:00am 20.3 13.4 17.5 84 1.7 SE 50 57 27 31 1010.3 - -
23/04:30am 20.1 13.6 17.5 85 1.6 SE 48 57 26 31 1010.2 - -
23/04:00am 21.6 14.5 17.0 75 2.8 ESE 50 57 27 31 1009.8 - -
23/03:30am 22.1 14.8 17.5 75 2.8 ESE 52 61 28 33 1009.8 - -
23/03:00am 22.8 15.6 17.7 73 3.2 ESE 52 61 28 33 1009.6 1009.5 -
23/02:30am 22.6 17.1 18.2 76 2.8 ESE 44 52 24 28 1009.8 - -
23/02:00am 23.1 17.1 17.8 72 3.3 SE 46 54 25 29 1009.5 - -
23/01:30am 23.5 17.4 17.5 69 3.7 ESE 46 57 25 31 1009.6 - -
23/01:00am 23.5 16.5 17.3 68 3.8 ESE 50 57 27 31 1009.9 - -
23/12:30am 23.4 17.1 18.1 72 3.3 SE 48 57 26 31 1009.6 - -
23/12:00am 23.4 17.3 18.5 74 3.1 SE 48 56 26 30 1009.9 1009.8 -
 
Date/Time
WST
Temp
°C
App
Temp
°C
Dew
Point
Rel
Hum
%
Delta-T
°C
Wind Press
QNH
hPa
Press
MSL
hPa
Rain
since 9 am
mm
Dir
 
Spd
km/h
Gust
km/h
Spd
kts
Gust
kts
22/11:30pm 23.2 17.5 18.5 75 3.0 SE 46 57 25 31 1010.0 - -
22/11:00pm 23.0 16.5 18.5 76 2.8 SE 50 59 27 32 1010.3 - -
22/10:30pm 22.4 16.0 18.6 79 2.4 SE 50 57 27 31 1010.2 - -
22/10:00pm 21.5 15.5 18.7 84 1.8 SE 48 56 26 30 1010.4 - -
22/09:30pm 21.1 15.1 18.7 86 1.5 SE 48 56 26 30 1010.5 - -
22/09:00pm 21.2 15.3 18.9 87 1.4 SE 48 57 26 31 1010.4 1010.3 -
22/08:30pm 21.2 15.4 19.1 88 1.3 SE 48 57 26 31 1010.6 - -
22/08:00pm 21.2 16.1 19.8 92 0.9 SE 46 56 25 30 1010.6 - -
22/07:30pm 21.3 15.8 19.9 92 0.9 SE 48 56 26 30 1010.2 - -
22/07:00pm 21.6 16.4 20.4 93 0.8 SE 48 56 26 30 1009.6 - -

Other Formats:

Comma delimited format used in spreadsheet applications
http://www.bom.gov.au/fwo/IDW60801/IDW60801.94310.axf

JavaScript Object Notation format (JSON) in row-major order
http://www.bom.gov.au/fwo/IDW60801/IDW60801.94310.json